Shippensburg, Pennsylvania
Current Conditions -  °F | °C
As of 6:53 AM on Tuesday 21 Oct 2014 (Local Time) from KRYT Reporting Station
Broken Clouds Broken Clouds  
Wind Chill: 47°   Ceiling: 7000
Heat Index: 47°   Visibility: 7mi
Dew Point: 46°   Wind: 0mph
Humidity: 97%   Direction: NA
Pressure: 29.84"   Gusts: NA
Location:  40.05°N, 77.52°W
Report Text: KRYT 211053Z AUTO 00000KT 7SM BKN070 BKN090 08/08 A2984 RMK AO2 SLP107 T00830078 $
Loading
Personal Weather Stations






























Interactive Weather Map
Tropical Storm Tracking
New forecast layout! Learn more

10-Day Weather Forecast

Advertisements
Track Severe Weather on mobile